Burnham, New Mexico
Current Conditions -  °F | °C
As of 2:53 PM on Monday 22 Dec 2014 (Local Time) from KFMN Reporting Station
Clear Clear  
Wind Chill: 32°   Ceiling: Unl
Heat Index: 42°   Visibility: 10mi
Dew Point: 37°   Wind: 24mph
Humidity: 82%   Direction: 290°WNW
Pressure: 29.77"   Gusts: 30mph
Location:  36.3443°N, 108.144°W
Report Text: KFMN 222153Z 29021G26KT 10SM CLR 06/03 A2977 RMK AO2 PK WND 28036/2105 RAE23 SLP080 P0001 T00560028
Loading
Personal Weather Stations






























Interactive Weather Map New forecast layout! Learn more

10-Day Weather Forecast

Advertisements
Track Severe Weather on mobile